sensor_id;sensor_type;location;lat;lon;timestamp;P1;durP1;ratioP1;P2;durP2;ratioP2
72621;SDS011;60665;53.506;9.582;2023-02-07T05:00:27;9.65;;;4.40;;
72621;SDS011;60665;53.506;9.582;2023-02-07T05:02:52;12.50;;;4.90;;
72621;SDS011;60665;53.506;9.582;2023-02-07T05:05:18;13.05;;;4.80;;
72621;SDS011;60665;53.506;9.582;2023-02-07T05:07:44;11.20;;;5.40;;
72621;SDS011;60665;53.506;9.582;2023-02-07T05:10:09;9.77;;;4.90;;
72621;SDS011;60665;53.506;9.582;2023-02-07T05:12:35;11.75;;;5.22;;
72621;SDS011;60665;53.506;9.582;2023-02-07T05:15:00;11.45;;;5.10;;
72621;SDS011;60665;53.506;9.582;2023-02-07T05:17:26;11.57;;;5.32;;
72621;SDS011;60665;53.506;9.582;2023-02-07T05:19:51;10.25;;;4.50;;
72621;SDS011;60665;53.506;9.582;2023-02-07T05:22:17;11.35;;;5.15;;
72621;SDS011;60665;53.506;9.582;2023-02-07T05:24:42;14.73;;;5.55;;
72621;SDS011;60665;53.506;9.582;2023-02-07T05:27:07;8.98;;;4.95;;
72621;SDS011;60665;53.506;9.582;2023-02-07T05:29:33;11.73;;;5.07;;
72621;SDS011;60665;53.506;9.582;2023-02-07T05:31:59;12.38;;;5.07;;
72621;SDS011;60665;53.506;9.582;2023-02-07T05:34:43;11.80;;;5.03;;
72621;SDS011;60665;53.506;9.582;2023-02-07T05:37:08;11.52;;;5.35;;
72621;SDS011;60665;53.506;9.582;2023-02-07T05:39:33;12.07;;;5.22;;
72621;SDS011;60665;53.506;9.582;2023-02-07T05:41:59;14.52;;;4.97;;
72621;SDS011;60665;53.506;9.582;2023-02-07T05:44:24;11.40;;;5.20;;
72621;SDS011;60665;53.506;9.582;2023-02-07T05:46:49;11.25;;;5.38;;
72621;SDS011;60665;53.506;9.582;2023-02-07T05:49:15;9.80;;;5.07;;
72621;SDS011;60665;53.506;9.582;2023-02-07T05:51:40;10.07;;;5.05;;
72621;SDS011;60665;53.506;9.582;2023-02-07T05:54:06;10.70;;;5.40;;
72621;SDS011;60665;53.506;9.582;2023-02-07T05:56:31;9.98;;;4.82;;
72621;SDS011;60665;53.506;9.582;2023-02-07T05:58:57;8.77;;;4.40;;
72621;SDS011;60665;53.506;9.582;2023-02-07T06:01:22;11.23;;;4.93;;
72621;SDS011;60665;53.506;9.582;2023-02-07T06:03:48;9.73;;;4.68;;
72621;SDS011;60665;53.506;9.582;2023-02-07T06:06:13;11.02;;;4.72;;
72621;SDS011;60665;53.506;9.582;2023-02-07T06:08:38;12.05;;;4.60;;
72621;SDS011;60665;53.506;9.582;2023-02-07T06:11:04;10.57;;;4.78;;
72621;SDS011;60665;53.506;9.582;2023-02-07T06:13:29;13.68;;;6.15;;
72621;SDS011;60665;53.506;9.582;2023-02-07T06:15:54;17.92;;;7.47;;
72621;SDS011;60665;53.506;9.582;2023-02-07T06:18:20;15.32;;;6.97;;
72621;SDS011;60665;53.506;9.582;2023-02-07T06:20:48;14.43;;;6.32;;
72621;SDS011;60665;53.506;9.582;2023-02-07T06:23:14;15.50;;;6.20;;
72621;SDS011;60665;53.506;9.582;2023-02-07T06:25:39;12.65;;;6.20;;
72621;SDS011;60665;53.506;9.582;2023-02-07T06:28:05;11.05;;;5.53;;
72621;SDS011;60665;53.506;9.582;2023-02-07T06:30:30;14.00;;;5.75;;
72621;SDS011;60665;53.506;9.582;2023-02-07T06:32:56;14.13;;;6.63;;
72621;SDS011;60665;53.506;9.582;2023-02-07T06:35:21;14.27;;;6.07;;
72621;SDS011;60665;53.506;9.582;2023-02-07T06:37:46;14.75;;;6.80;;
72621;SDS011;60665;53.506;9.582;2023-02-07T06:40:12;11.10;;;5.72;;
72621;SDS011;60665;53.506;9.582;2023-02-07T06:42:37;12.88;;;5.95;;
72621;SDS011;60665;53.506;9.582;2023-02-07T06:45:03;12.95;;;5.80;;
72621;SDS011;60665;53.506;9.582;2023-02-07T06:47:28;10.80;;;5.43;;
72621;SDS011;60665;53.506;9.582;2023-02-07T06:49:54;14.15;;;5.60;;
72621;SDS011;60665;53.506;9.582;2023-02-07T06:52:19;13.23;;;5.85;;
72621;SDS011;60665;53.506;9.582;2023-02-07T06:54:45;11.57;;;5.93;;
72621;SDS011;60665;53.506;9.582;2023-02-07T06:57:10;12.50;;;5.90;;
72621;SDS011;60665;53.506;9.582;2023-02-07T06:59:35;13.00;;;5.80;;
72621;SDS011;60665;53.506;9.582;2023-02-07T07:02:01;13.85;;;6.07;;
72621;SDS011;60665;53.506;9.582;2023-02-07T07:04:27;12.98;;;6.60;;
72621;SDS011;60665;53.506;9.582;2023-02-07T16:29:25;7.93;;;3.42;;
72621;SDS011;60665;53.506;9.582;2023-02-07T16:31:51;8.55;;;3.53;;
72621;SDS011;60665;53.506;9.582;2023-02-07T16:34:18;9.95;;;3.33;;
72621;SDS011;60665;53.506;9.582;2023-02-07T16:36:44;8.30;;;3.67;;
72621;SDS011;60665;53.506;9.582;2023-02-07T16:39:13;8.55;;;3.60;;
72621;SDS011;60665;53.506;9.582;2023-02-07T16:41:39;9.63;;;4.60;;
72621;SDS011;60665;53.506;9.582;2023-02-07T16:44:06;9.13;;;4.72;;
72621;SDS011;60665;53.506;9.582;2023-02-07T16:46:42;8.65;;;4.55;;
72621;SDS011;60665;53.506;9.582;2023-02-07T16:49:18;9.43;;;4.50;;
72621;SDS011;60665;53.506;9.582;2023-02-07T16:51:45;10.70;;;4.70;;
72621;SDS011;60665;53.506;9.582;2023-02-07T16:54:10;9.20;;;4.13;;
72621;SDS011;60665;53.506;9.582;2023-02-07T16:56:36;10.77;;;4.82;;
72621;SDS011;60665;53.506;9.582;2023-02-07T16:59:01;10.40;;;4.38;;
72621;SDS011;60665;53.506;9.582;2023-02-07T17:01:28;11.30;;;4.90;;
72621;SDS011;60665;53.506;9.582;2023-02-07T17:03:53;10.18;;;4.47;;
72621;SDS011;60665;53.506;9.582;2023-02-07T17:06:19;7.85;;;4.25;;
72621;SDS011;60665;53.506;9.582;2023-02-07T17:08:46;10.63;;;5.10;;
72621;SDS011;60665;53.506;9.582;2023-02-07T17:11:13;8.65;;;4.20;;
72621;SDS011;60665;53.506;9.582;2023-02-07T17:13:40;9.70;;;4.60;;
72621;SDS011;60665;53.506;9.582;2023-02-07T17:16:12;8.77;;;4.05;;
72621;SDS011;60665;53.506;9.582;2023-02-07T17:18:38;8.90;;;4.45;;
72621;SDS011;60665;53.506;9.582;2023-02-07T17:21:04;8.48;;;3.78;;
72621;SDS011;60665;53.506;9.582;2023-02-07T17:23:30;8.18;;;3.95;;
72621;SDS011;60665;53.506;9.582;2023-02-07T17:25:55;7.65;;;3.80;;
72621;SDS011;60665;53.506;9.582;2023-02-07T17:28:21;7.93;;;4.30;;
72621;SDS011;60665;53.506;9.582;2023-02-07T17:30:46;9.02;;;4.40;;
72621;SDS011;60665;53.506;9.582;2023-02-07T17:33:11;10.25;;;4.30;;
72621;SDS011;60665;53.506;9.582;2023-02-07T17:35:37;7.70;;;3.72;;
72621;SDS011;60665;53.506;9.582;2023-02-07T17:38:03;10.50;;;4.22;;
72621;SDS011;60665;53.506;9.582;2023-02-07T17:40:35;10.45;;;3.67;;
72621;SDS011;60665;53.506;9.582;2023-02-07T17:43:03;8.43;;;3.42;;
72621;SDS011;60665;53.506;9.582;2023-02-07T17:45:29;6.65;;;3.38;;
72621;SDS011;60665;53.506;9.582;2023-02-07T17:47:56;8.70;;;4.28;;
72621;SDS011;60665;53.506;9.582;2023-02-07T17:50:28;9.50;;;4.47;;
72621;SDS011;60665;53.506;9.582;2023-02-07T17:52:56;9.23;;;4.47;;
72621;SDS011;60665;53.506;9.582;2023-02-07T17:55:22;11.50;;;5.43;;
72621;SDS011;60665;53.506;9.582;2023-02-07T17:57:48;16.20;;;5.82;;
72621;SDS011;60665;53.506;9.582;2023-02-07T18:00:16;15.48;;;6.82;;
72621;SDS011;60665;53.506;9.582;2023-02-07T18:02:44;15.77;;;6.90;;
72621;SDS011;60665;53.506;9.582;2023-02-07T18:05:09;17.77;;;7.70;;
72621;SDS011;60665;53.506;9.582;2023-02-07T18:07:35;13.15;;;5.40;;
72621;SDS011;60665;53.506;9.582;2023-02-07T18:10:00;13.35;;;5.97;;
72621;SDS011;60665;53.506;9.582;2023-02-07T18:12:26;12.93;;;5.78;;
72621;SDS011;60665;53.506;9.582;2023-02-07T18:14:51;11.80;;;5.35;;
72621;SDS011;60665;53.506;9.582;2023-02-07T18:17:17;11.80;;;5.57;;
72621;SDS011;60665;53.506;9.582;2023-02-07T18:19:42;9.57;;;5.28;;
72621;SDS011;60665;53.506;9.582;2023-02-07T18:22:07;10.25;;;5.85;;
72621;SDS011;60665;53.506;9.582;2023-02-07T18:24:33;11.38;;;5.72;;
72621;SDS011;60665;53.506;9.582;2023-02-07T18:26:58;12.57;;;6.50;;
72621;SDS011;60665;53.506;9.582;2023-02-07T18:29:24;15.10;;;7.07;;
72621;SDS011;60665;53.506;9.582;2023-02-07T18:31:49;13.80;;;6.30;;
72621;SDS011;60665;53.506;9.582;2023-02-07T18:34:15;11.93;;;5.38;;
72621;SDS011;60665;53.506;9.582;2023-02-07T18:36:41;9.73;;;5.05;;
72621;SDS011;60665;53.506;9.582;2023-02-07T18:39:08;10.95;;;4.97;;
72621;SDS011;60665;53.506;9.582;2023-02-07T18:41:34;9.90;;;5.00;;
72621;SDS011;60665;53.506;9.582;2023-02-07T18:44:00;13.82;;;5.97;;
72621;SDS011;60665;53.506;9.582;2023-02-07T18:46:27;11.85;;;6.43;;
72621;SDS011;60665;53.506;9.582;2023-02-07T18:48:54;11.63;;;5.65;;
72621;SDS011;60665;53.506;9.582;2023-02-07T18:51:20;13.15;;;5.88;;
72621;SDS011;60665;53.506;9.582;2023-02-07T18:53:45;14.50;;;6.05;;
72621;SDS011;60665;53.506;9.582;2023-02-07T18:56:13;11.30;;;5.28;;
72621;SDS011;60665;53.506;9.582;2023-02-07T18:58:40;11.52;;;5.72;;
72621;SDS011;60665;53.506;9.582;2023-02-07T19:01:07;10.23;;;5.50;;
72621;SDS011;60665;53.506;9.582;2023-02-07T19:03:34;13.68;;;5.47;;
72621;SDS011;60665;53.506;9.582;2023-02-07T19:06:00;11.68;;;4.30;;
72621;SDS011;60665;53.506;9.582;2023-02-07T19:08:27;10.45;;;5.28;;
72621;SDS011;60665;53.506;9.582;2023-02-07T19:10:57;8.77;;;4.70;;
72621;SDS011;60665;53.506;9.582;2023-02-07T19:13:25;11.30;;;5.40;;
72621;SDS011;60665;53.506;9.582;2023-02-07T19:15:51;10.15;;;5.70;;
72621;SDS011;60665;53.506;9.582;2023-02-07T19:18:16;9.45;;;4.47;;
72621;SDS011;60665;53.506;9.582;2023-02-07T19:20:42;9.32;;;4.72;;
72621;SDS011;60665;53.506;9.582;2023-02-07T19:23:07;9.85;;;5.80;;
72621;SDS011;60665;53.506;9.582;2023-02-07T19:25:33;9.48;;;5.40;;
72621;SDS011;60665;53.506;9.582;2023-02-07T19:27:58;8.75;;;4.95;;
72621;SDS011;60665;53.506;9.582;2023-02-07T19:30:24;9.68;;;4.38;;
72621;SDS011;60665;53.506;9.582;2023-02-07T19:32:49;11.00;;;4.32;;
72621;SDS011;60665;53.506;9.582;2023-02-07T19:35:15;8.50;;;3.85;;
72621;SDS011;60665;53.506;9.582;2023-02-07T19:37:41;9.55;;;4.32;;
72621;SDS011;60665;53.506;9.582;2023-02-07T19:40:07;10.55;;;4.65;;
72621;SDS011;60665;53.506;9.582;2023-02-07T19:42:32;9.35;;;4.40;;
72621;SDS011;60665;53.506;9.582;2023-02-07T19:44:58;8.60;;;4.15;;
72621;SDS011;60665;53.506;9.582;2023-02-07T19:47:23;10.45;;;4.50;;
72621;SDS011;60665;53.506;9.582;2023-02-07T19:49:49;8.00;;;3.95;;
72621;SDS011;60665;53.506;9.582;2023-02-07T19:52:19;9.20;;;4.40;;
72621;SDS011;60665;53.506;9.582;2023-02-07T19:54:44;7.53;;;4.03;;
72621;SDS011;60665;53.506;9.582;2023-02-07T19:57:10;7.95;;;4.18;;
72621;SDS011;60665;53.506;9.582;2023-02-07T19:59:36;9.63;;;3.90;;
72621;SDS011;60665;53.506;9.582;2023-02-07T20:02:01;10.85;;;4.70;;
72621;SDS011;60665;53.506;9.582;2023-02-07T20:04:27;12.35;;;5.60;;
72621;SDS011;60665;53.506;9.582;2023-02-07T20:06:52;8.63;;;4.40;;
72621;SDS011;60665;53.506;9.582;2023-02-07T20:09:18;12.40;;;6.20;;
72621;SDS011;60665;53.506;9.582;2023-02-07T20:11:43;12.80;;;6.13;;
72621;SDS011;60665;53.506;9.582;2023-02-07T20:14:09;17.90;;;8.48;;
72621;SDS011;60665;53.506;9.582;2023-02-07T20:16:35;16.52;;;8.25;;
72621;SDS011;60665;53.506;9.582;2023-02-07T20:19:02;13.25;;;7.18;;
72621;SDS011;60665;53.506;9.582;2023-02-07T20:21:29;14.75;;;7.05;;
72621;SDS011;60665;53.506;9.582;2023-02-07T20:23:57;16.80;;;7.75;;
72621;SDS011;60665;53.506;9.582;2023-02-07T20:26:24;15.60;;;6.82;;
72621;SDS011;60665;53.506;9.582;2023-02-07T20:28:51;15.25;;;7.22;;
72621;SDS011;60665;53.506;9.582;2023-02-07T20:31:18;13.65;;;7.30;;
72621;SDS011;60665;53.506;9.582;2023-02-07T20:33:50;14.02;;;7.78;;
72621;SDS011;60665;53.506;9.582;2023-02-07T20:36:17;15.68;;;7.55;;
72621;SDS011;60665;53.506;9.582;2023-02-07T20:38:43;19.52;;;8.02;;
72621;SDS011;60665;53.506;9.582;2023-02-07T20:41:13;13.93;;;7.18;;
72621;SDS011;60665;53.506;9.582;2023-02-07T20:43:40;15.50;;;7.95;;
72621;SDS011;60665;53.506;9.582;2023-02-07T20:46:12;12.02;;;6.57;;
72621;SDS011;60665;53.506;9.582;2023-02-07T20:48:38;17.70;;;8.20;;
72621;SDS011;60665;53.506;9.582;2023-02-07T20:51:05;16.85;;;7.72;;
72621;SDS011;60665;53.506;9.582;2023-02-07T20:53:37;16.63;;;7.95;;
72621;SDS011;60665;53.506;9.582;2023-02-07T20:56:08;17.45;;;8.25;;
72621;SDS011;60665;53.506;9.582;2023-02-07T20:58:35;17.08;;;8.32;;
72621;SDS011;60665;53.506;9.582;2023-02-07T21:01:08;17.48;;;8.23;;
72621;SDS011;60665;53.506;9.582;2023-02-07T21:03:35;16.42;;;7.85;;
72621;SDS011;60665;53.506;9.582;2023-02-07T21:06:01;14.77;;;7.18;;
72621;SDS011;60665;53.506;9.582;2023-02-07T21:08:27;15.18;;;7.25;;
72621;SDS011;60665;53.506;9.582;2023-02-07T21:10:52;16.33;;;7.32;;
72621;SDS011;60665;53.506;9.582;2023-02-07T21:13:18;14.52;;;7.60;;
72621;SDS011;60665;53.506;9.582;2023-02-07T21:15:43;15.90;;;7.93;;
72621;SDS011;60665;53.506;9.582;2023-02-07T21:18:11;15.13;;;7.80;;
72621;SDS011;60665;53.506;9.582;2023-02-07T21:20:37;18.38;;;7.63;;
72621;SDS011;60665;53.506;9.582;2023-02-07T21:23:02;21.33;;;8.20;;
72621;SDS011;60665;53.506;9.582;2023-02-07T21:25:29;19.60;;;8.77;;
72621;SDS011;60665;53.506;9.582;2023-02-07T21:27:55;16.02;;;7.95;;
72621;SDS011;60665;53.506;9.582;2023-02-07T21:30:20;19.48;;;8.88;;
72621;SDS011;60665;53.506;9.582;2023-02-07T21:32:45;21.35;;;9.77;;
72621;SDS011;60665;53.506;9.582;2023-02-07T21:35:11;19.98;;;10.30;;
